sensor_id;sensor_type;location;lat;lon;timestamp;pressure;altitude;pressure_sealevel;temperature;humidity
43488;BME280;29078;41.932;25.554;2023-06-05T00:00:29;100034.41;;;19.98;58.16
43488;BME280;29078;41.932;25.554;2023-06-05T00:02:54;100035.31;;;19.92;58.38
43488;BME280;29078;41.932;25.554;2023-06-05T00:05:19;100039.63;;;19.93;58.19
43488;BME280;29078;41.932;25.554;2023-06-05T00:07:45;100045.78;;;19.93;58.05
43488;BME280;29078;41.932;25.554;2023-06-05T00:10:10;100054.66;;;19.94;58.26
43488;BME280;29078;41.932;25.554;2023-06-05T00:12:36;100058.00;;;19.89;57.87
43488;BME280;29078;41.932;25.554;2023-06-05T00:15:01;100060.91;;;19.88;57.61
43488;BME280;29078;41.932;25.554;2023-06-05T00:17:27;100065.09;;;19.84;57.91
43488;BME280;29078;41.932;25.554;2023-06-05T00:19:52;100054.25;;;19.79;58.27
43488;BME280;29078;41.932;25.554;2023-06-05T00:22:18;100058.03;;;19.71;58.36
43488;BME280;29078;41.932;25.554;2023-06-05T00:24:44;100052.53;;;19.66;58.66
43488;BME280;29078;41.932;25.554;2023-06-05T00:27:09;100058.72;;;19.66;58.51
43488;BME280;29078;41.932;25.554;2023-06-05T00:29:34;100052.31;;;19.67;58.70
43488;BME280;29078;41.932;25.554;2023-06-05T00:31:59;100049.78;;;19.73;58.50
43488;BME280;29078;41.932;25.554;2023-06-05T00:34:25;100039.97;;;19.66;58.87
43488;BME280;29078;41.932;25.554;2023-06-05T00:36:50;100044.72;;;19.64;58.50
43488;BME280;29078;41.932;25.554;2023-06-05T00:39:16;100039.16;;;19.66;58.36
43488;BME280;29078;41.932;25.554;2023-06-05T00:41:44;100039.97;;;19.66;58.36
43488;BME280;29078;41.932;25.554;2023-06-05T00:44:09;100036.69;;;19.64;58.22
43488;BME280;29078;41.932;25.554;2023-06-05T00:46:35;100033.88;;;19.59;58.45
43488;BME280;29078;41.932;25.554;2023-06-05T00:49:00;100037.00;;;19.56;58.65
43488;BME280;29078;41.932;25.554;2023-06-05T00:51:25;100035.38;;;19.55;58.28
43488;BME280;29078;41.932;25.554;2023-06-05T00:53:51;100040.88;;;19.60;58.31
43488;BME280;29078;41.932;25.554;2023-06-05T00:56:16;100036.78;;;19.58;58.25
43488;BME280;29078;41.932;25.554;2023-06-05T00:58:45;100037.59;;;19.58;57.97
43488;BME280;29078;41.932;25.554;2023-06-05T01:01:11;100041.09;;;19.59;58.04
43488;BME280;29078;41.932;25.554;2023-06-05T01:03:36;100034.91;;;19.58;57.88
43488;BME280;29078;41.932;25.554;2023-06-05T01:06:01;100041.91;;;19.59;56.64
43488;BME280;29078;41.932;25.554;2023-06-05T01:08:34;100034.31;;;19.56;55.50
43488;BME280;29078;41.932;25.554;2023-06-05T01:13:54;100039.34;;;19.46;55.31
43488;BME280;29078;41.932;25.554;2023-06-05T01:16:22;100041.00;;;19.47;55.12
43488;BME280;29078;41.932;25.554;2023-06-05T01:18:56;100038.53;;;19.46;54.09
43488;BME280;29078;41.932;25.554;2023-06-05T01:21:27;100035.03;;;19.45;55.06
43488;BME280;29078;41.932;25.554;2023-06-05T01:23:52;100034.91;;;19.40;54.60
43488;BME280;29078;41.932;25.554;2023-06-05T01:26:18;100028.56;;;19.34;54.31
43488;BME280;29078;41.932;25.554;2023-06-05T01:28:47;100035.84;;;19.27;54.68
43488;BME280;29078;41.932;25.554;2023-06-05T01:31:14;100027.44;;;19.24;54.95
43488;BME280;29078;41.932;25.554;2023-06-05T01:33:46;100033.22;;;19.21;54.84
43488;BME280;29078;41.932;25.554;2023-06-05T01:36:15;100045.25;;;19.12;54.27
43488;BME280;29078;41.932;25.554;2023-06-05T01:38:41;100045.03;;;19.13;55.18
43488;BME280;29078;41.932;25.554;2023-06-05T01:41:06;100042.16;;;19.15;54.96
43488;BME280;29078;41.932;25.554;2023-06-05T01:43:32;100040.50;;;19.14;54.17
43488;BME280;29078;41.932;25.554;2023-06-05T01:45:58;100034.94;;;19.15;54.57
43488;BME280;29078;41.932;25.554;2023-06-05T01:48:24;100045.84;;;19.14;54.48
43488;BME280;29078;41.932;25.554;2023-06-05T01:50:58;100049.34;;;19.14;54.55
43488;BME280;29078;41.932;25.554;2023-06-05T01:53:24;100048.91;;;19.17;54.79
43488;BME280;29078;41.932;25.554;2023-06-05T01:55:50;100046.84;;;19.19;54.93
43488;BME280;29078;41.932;25.554;2023-06-05T01:58:18;100046.38;;;19.22;54.31
43488;BME280;29078;41.932;25.554;2023-06-05T02:00:43;100039.41;;;19.21;53.07
43488;BME280;29078;41.932;25.554;2023-06-05T02:03:10;100041.25;;;19.21;54.20
43488;BME280;29078;41.932;25.554;2023-06-05T02:05:35;100024.38;;;19.20;54.06
43488;BME280;29078;41.932;25.554;2023-06-05T02:08:01;100028.31;;;19.18;53.81
43488;BME280;29078;41.932;25.554;2023-06-05T02:10:30;100026.31;;;19.13;53.06
43488;BME280;29078;41.932;25.554;2023-06-05T02:12:56;100030.03;;;19.12;53.29
43488;BME280;29078;41.932;25.554;2023-06-05T02:15:21;100046.47;;;19.16;53.87
43488;BME280;29078;41.932;25.554;2023-06-05T02:17:48;100034.13;;;19.15;54.10
43488;BME280;29078;41.932;25.554;2023-06-05T02:20:18;100031.44;;;19.15;53.99
43488;BME280;29078;41.932;25.554;2023-06-05T02:22:43;100034.13;;;19.15;53.68
43488;BME280;29078;41.932;25.554;2023-06-05T02:25:15;100037.16;;;19.18;54.08
43488;BME280;29078;41.932;25.554;2023-06-05T02:27:40;100041.53;;;19.13;53.70
43488;BME280;29078;41.932;25.554;2023-06-05T02:30:06;100041.16;;;19.09;53.28
43488;BME280;29078;41.932;25.554;2023-06-05T02:32:32;100046.31;;;19.11;53.84
43488;BME280;29078;41.932;25.554;2023-06-05T02:34:57;100047.56;;;19.08;53.87
43488;BME280;29078;41.932;25.554;2023-06-05T02:37:23;100047.94;;;19.12;53.71
43488;BME280;29078;41.932;25.554;2023-06-05T02:39:49;100045.25;;;19.12;53.38
43488;BME280;29078;41.932;25.554;2023-06-05T02:42:14;100050.84;;;19.10;53.75
43488;BME280;29078;41.932;25.554;2023-06-05T02:44:40;100054.34;;;19.11;53.23
43488;BME280;29078;41.932;25.554;2023-06-05T02:47:05;100053.97;;;19.07;53.22
43488;BME280;29078;41.932;25.554;2023-06-05T02:49:30;100046.16;;;19.05;53.20
43488;BME280;29078;41.932;25.554;2023-06-05T02:51:57;100046.38;;;19.04;52.82
43488;BME280;29078;41.932;25.554;2023-06-05T02:54:23;100055.00;;;19.06;52.67
43488;BME280;29078;41.932;25.554;2023-06-05T02:56:48;100045.56;;;19.03;52.71
43488;BME280;29078;41.932;25.554;2023-06-05T02:59:14;100044.72;;;19.03;52.63
43488;BME280;29078;41.932;25.554;2023-06-05T03:01:40;100046.38;;;19.04;53.51
43488;BME280;29078;41.932;25.554;2023-06-05T03:04:08;100046.16;;;19.05;52.93
43488;BME280;29078;41.932;25.554;2023-06-05T03:06:34;100054.78;;;19.08;52.81
43488;BME280;29078;41.932;25.554;2023-06-05T03:09:00;100060.94;;;19.08;53.04
43488;BME280;29078;41.932;25.554;2023-06-05T03:11:25;100060.13;;;19.08;53.06
43488;BME280;29078;41.932;25.554;2023-06-05T03:13:51;100058.88;;;19.10;53.44
43488;BME280;29078;41.932;25.554;2023-06-05T03:16:17;100055.16;;;19.11;52.84
43488;BME280;29078;41.932;25.554;2023-06-05T03:18:42;100061.09;;;19.13;53.78
43488;BME280;29078;41.932;25.554;2023-06-05T03:21:08;100065.91;;;19.04;52.97
43488;BME280;29078;41.932;25.554;2023-06-05T03:23:35;100059.53;;;19.05;53.23
43488;BME280;29078;41.932;25.554;2023-06-05T03:26:00;100071.44;;;19.10;52.67
43488;BME280;29078;41.932;25.554;2023-06-05T03:28:27;100064.22;;;19.10;53.42
43488;BME280;29078;41.932;25.554;2023-06-05T03:30:52;100062.97;;;19.13;53.40
43488;BME280;29078;41.932;25.554;2023-06-05T03:33:17;100062.38;;;19.11;52.73
43488;BME280;29078;41.932;25.554;2023-06-05T03:35:43;100063.84;;;19.07;52.70
43488;BME280;29078;41.932;25.554;2023-06-05T03:38:11;100063.47;;;19.03;53.59
43488;BME280;29078;41.932;25.554;2023-06-05T03:40:36;100057.06;;;19.04;53.42
43488;BME280;29078;41.932;25.554;2023-06-05T03:43:04;100053.72;;;19.09;53.05
43488;BME280;29078;41.932;25.554;2023-06-05T03:45:29;100052.69;;;19.10;53.27
43488;BME280;29078;41.932;25.554;2023-06-05T03:47:55;100054.09;;;19.12;52.98
43488;BME280;29078;41.932;25.554;2023-06-05T03:50:24;100054.34;;;19.11;53.45
43488;BME280;29078;41.932;25.554;2023-06-05T03:52:50;100058.19;;;19.15;53.45
43488;BME280;29078;41.932;25.554;2023-06-05T03:55:19;100051.59;;;19.17;53.41
43488;BME280;29078;41.932;25.554;2023-06-05T03:57:47;100055.91;;;19.18;53.87
43488;BME280;29078;41.932;25.554;2023-06-05T04:00:13;100058.88;;;19.10;53.73
43488;BME280;29078;41.932;25.554;2023-06-05T04:02:39;100058.72;;;19.05;54.06
43488;BME280;29078;41.932;25.554;2023-06-05T04:05:05;100061.81;;;19.02;54.23
43488;BME280;29078;41.932;25.554;2023-06-05T04:07:30;100061.59;;;19.03;54.17
43488;BME280;29078;41.932;25.554;2023-06-05T04:09:56;100058.28;;;19.08;54.16
43488;BME280;29078;41.932;25.554;2023-06-05T04:12:21;100060.78;;;19.03;54.36
43488;BME280;29078;41.932;25.554;2023-06-05T04:14:46;100065.09;;;19.04;54.32
43488;BME280;29078;41.932;25.554;2023-06-05T04:17:12;100051.50;;;19.05;54.41
43488;BME280;29078;41.932;25.554;2023-06-05T04:19:38;100055.81;;;19.07;54.60
43488;BME280;29078;41.932;25.554;2023-06-05T04:22:04;100052.31;;;19.06;54.31
43488;BME280;29078;41.932;25.554;2023-06-05T04:24:29;100060.13;;;19.08;54.14
43488;BME280;29078;41.932;25.554;2023-06-05T04:26:55;100065.63;;;19.13;54.24
43488;BME280;29078;41.932;25.554;2023-06-05T04:29:20;100058.66;;;19.12;54.22
43488;BME280;29078;41.932;25.554;2023-06-05T04:31:46;100063.63;;;19.08;54.23
43488;BME280;29078;41.932;25.554;2023-06-05T04:34:12;100058.28;;;19.08;54.22
43488;BME280;29078;41.932;25.554;2023-06-05T04:36:38;100060.94;;;19.08;54.13
43488;BME280;29078;41.932;25.554;2023-06-05T04:39:03;100053.28;;;19.12;54.20
43488;BME280;29078;41.932;25.554;2023-06-05T04:41:30;100064.75;;;19.19;54.34
43488;BME280;29078;41.932;25.554;2023-06-05T04:43:55;100071.91;;;19.25;54.05
43488;BME280;29078;41.932;25.554;2023-06-05T04:46:22;100071.91;;;19.25;54.10
43488;BME280;29078;41.932;25.554;2023-06-05T04:48:47;100060.00;;;19.21;54.16
43488;BME280;29078;41.932;25.554;2023-06-05T04:51:12;100063.50;;;19.21;53.90
43488;BME280;29078;41.932;25.554;2023-06-05T04:53:38;100052.78;;;19.21;53.98
43488;BME280;29078;41.932;25.554;2023-06-05T04:56:03;100060.38;;;19.24;54.06
43488;BME280;29078;41.932;25.554;2023-06-05T04:58:29;100053.16;;;19.25;53.92
43488;BME280;29078;41.932;25.554;2023-06-05T05:00:54;100052.72;;;19.28;53.74
43488;BME280;29078;41.932;25.554;2023-06-05T05:03:29;100048.19;;;19.28;54.09
43488;BME280;29078;41.932;25.554;2023-06-05T05:05:55;100052.06;;;19.32;54.27
43488;BME280;29078;41.932;25.554;2023-06-05T05:08:20;100052.06;;;19.32;54.46
43488;BME280;29078;41.932;25.554;2023-06-05T05:10:46;100051.19;;;19.39;54.28
43488;BME280;29078;41.932;25.554;2023-06-05T05:13:12;100057.59;;;19.38;54.57
43488;BME280;29078;41.932;25.554;2023-06-05T05:15:37;100064.72;;;19.44;54.20
43488;BME280;29078;41.932;25.554;2023-06-05T05:18:02;100068.66;;;19.41;54.31
43488;BME280;29078;41.932;25.554;2023-06-05T05:20:28;100065.75;;;19.43;54.26
43488;BME280;29078;41.932;25.554;2023-06-05T05:22:54;100067.78;;;19.47;54.50
43488;BME280;29078;41.932;25.554;2023-06-05T05:25:20;100065.88;;;19.54;54.55
43488;BME280;29078;41.932;25.554;2023-06-05T05:27:46;100074.41;;;19.63;54.59
43488;BME280;29078;41.932;25.554;2023-06-05T05:30:11;100074.78;;;19.66;53.89
43488;BME280;29078;41.932;25.554;2023-06-05T05:32:37;100080.16;;;19.66;54.02
43488;BME280;29078;41.932;25.554;2023-06-05T05:35:02;100076.06;;;19.64;54.04
43488;BME280;29078;41.932;25.554;2023-06-05T05:37:27;100080.59;;;19.63;54.08
43488;BME280;29078;41.932;25.554;2023-06-05T05:39:53;100075.84;;;19.65;54.15
43488;BME280;29078;41.932;25.554;2023-06-05T05:42:19;100071.06;;;19.67;54.22
43488;BME280;29078;41.932;25.554;2023-06-05T05:44:44;100070.41;;;19.72;53.88
43488;BME280;29078;41.932;25.554;2023-06-05T05:47:10;100066.69;;;19.73;54.39
43488;BME280;29078;41.932;25.554;2023-06-05T05:49:35;100074.25;;;19.76;54.31
43488;BME280;29078;41.932;25.554;2023-06-05T05:52:00;100068.47;;;19.79;54.14
43488;BME280;29078;41.932;25.554;2023-06-05T05:54:26;100067.09;;;19.88;54.09
43488;BME280;29078;41.932;25.554;2023-06-05T05:56:52;100079.59;;;19.94;54.13
43488;BME280;29078;41.932;25.554;2023-06-05T05:59:17;100072.16;;;19.96;54.21
43488;BME280;29078;41.932;25.554;2023-06-05T06:01:43;100080.31;;;20.02;53.96
43488;BME280;29078;41.932;25.554;2023-06-05T06:04:08;100075.56;;;20.04;54.23
43488;BME280;29078;41.932;25.554;2023-06-05T06:06:33;100061.63;;;20.13;54.03
43488;BME280;29078;41.932;25.554;2023-06-05T06:08:59;100069.00;;;20.18;53.99
43488;BME280;29078;41.932;25.554;2023-06-05T06:11:25;100063.53;;;20.24;53.63
43488;BME280;29078;41.932;25.554;2023-06-05T06:13:51;100067.75;;;20.32;53.59
43488;BME280;29078;41.932;25.554;2023-06-05T06:16:17;100064.03;;;20.33;53.63
43488;BME280;29078;41.932;25.554;2023-06-05T06:18:42;100053.06;;;20.35;53.86
43488;BME280;29078;41.932;25.554;2023-06-05T06:21:08;100059.41;;;20.40;53.90
43488;BME280;29078;41.932;25.554;2023-06-05T06:23:33;100068.19;;;20.47;54.03
43488;BME280;29078;41.932;25.554;2023-06-05T06:25:59;100065.97;;;20.56;53.41
43488;BME280;29078;41.932;25.554;2023-06-05T06:28:25;100059.34;;;20.58;53.93
43488;BME280;29078;41.932;25.554;2023-06-05T06:30:50;100061.44;;;20.68;53.84
43488;BME280;29078;41.932;25.554;2023-06-05T06:33:15;100058.66;;;20.75;53.78
43488;BME280;29078;41.932;25.554;2023-06-05T06:35:41;100055.91;;;20.81;53.63
43488;BME280;29078;41.932;25.554;2023-06-05T06:38:06;100063.59;;;20.89;53.40
43488;BME280;29078;41.932;25.554;2023-06-05T06:40:31;100061.84;;;20.95;53.25
43488;BME280;29078;41.932;25.554;2023-06-05T06:42:57;100066.28;;;21.01;53.10
43488;BME280;29078;41.932;25.554;2023-06-05T06:45:22;100070.25;;;20.99;53.27
43488;BME280;29078;41.932;25.554;2023-06-05T06:47:47;100068.75;;;21.03;53.45
43488;BME280;29078;41.932;25.554;2023-06-05T06:50:13;100073.41;;;21.07;53.19
43488;BME280;29078;41.932;25.554;2023-06-05T06:52:38;100075.88;;;21.09;53.67
43488;BME280;29078;41.932;25.554;2023-06-05T06:55:04;100072.25;;;21.15;53.69
43488;BME280;29078;41.932;25.554;2023-06-05T06:57:29;100069.09;;;21.18;53.42
43488;BME280;29078;41.932;25.554;2023-06-05T06:59:55;100068.19;;;21.24;53.58
43488;BME280;29078;41.932;25.554;2023-06-05T07:02:22;100071.22;;;21.28;53.32
43488;BME280;29078;41.932;25.554;2023-06-05T07:04:47;100065.38;;;21.31;53.20
43488;BME280;29078;41.932;25.554;2023-06-05T07:07:14;100062.09;;;21.29;54.11
43488;BME280;29078;41.932;25.554;2023-06-05T07:09:44;100054.97;;;21.34;53.82
43488;BME280;29078;41.932;25.554;2023-06-05T07:12:10;100053.22;;;21.40;53.65
43488;BME280;29078;41.932;25.554;2023-06-05T07:17:19;100058.22;;;21.60;53.88
43488;BME280;29078;41.932;25.554;2023-06-05T07:19:45;100059.47;;;21.69;53.55
43488;BME280;29078;41.932;25.554;2023-06-05T07:22:10;100061.34;;;21.68;53.32
43488;BME280;29078;41.932;25.554;2023-06-05T07:24:36;100061.94;;;21.70;53.61
43488;BME280;29078;41.932;25.554;2023-06-05T07:27:03;100061.47;;;21.73;53.30
43488;BME280;29078;41.932;25.554;2023-06-05T07:29:29;100064.47;;;21.77;53.12
43488;BME280;29078;41.932;25.554;2023-06-05T07:31:55;100060.03;;;21.82;52.75
43488;BME280;29078;41.932;25.554;2023-06-05T07:34:21;100065.50;;;21.87;52.92
43488;BME280;29078;41.932;25.554;2023-06-05T07:36:47;100062.66;;;21.94;53.07
43488;BME280;29078;41.932;25.554;2023-06-05T07:39:13;100062.06;;;22.04;52.61
43488;BME280;29078;41.932;25.554;2023-06-05T07:41:39;100065.44;;;22.11;52.40
43488;BME280;29078;41.932;25.554;2023-06-05T07:44:08;100056.66;;;22.15;52.18
43488;BME280;29078;41.932;25.554;2023-06-05T07:46:33;100061.72;;;22.29;52.24
43488;BME280;29078;41.932;25.554;2023-06-05T07:48:59;100056.31;;;22.40;51.70
43488;BME280;29078;41.932;25.554;2023-06-05T07:51:24;100065.63;;;22.49;51.85
43488;BME280;29078;41.932;25.554;2023-06-05T07:53:50;100056.31;;;22.57;51.44
43488;BME280;29078;41.932;25.554;2023-06-05T07:56:15;100054.59;;;22.68;50.78
43488;BME280;29078;41.932;25.554;2023-06-05T07:58:41;100062.53;;;22.74;51.17
43488;BME280;29078;41.932;25.554;2023-06-05T08:01:07;100060.88;;;22.73;51.15
43488;BME280;29078;41.932;25.554;2023-06-05T08:03:33;100060.97;;;22.78;51.11
43488;BME280;29078;41.932;25.554;2023-06-05T08:05:58;100056.28;;;22.86;50.97
43488;BME280;29078;41.932;25.554;2023-06-05T08:08:23;100049.66;;;22.93;50.59
43488;BME280;29078;41.932;25.554;2023-06-05T08:10:49;100050.53;;;22.99;50.41
43488;BME280;29078;41.932;25.554;2023-06-05T08:13:14;100051.69;;;23.03;50.42
43488;BME280;29078;41.932;25.554;2023-06-05T08:15:40;100049.34;;;23.06;50.05
43488;BME280;29078;41.932;25.554;2023-06-05T08:18:05;100044.09;;;23.17;50.12
43488;BME280;29078;41.932;25.554;2023-06-05T08:20:30;100044.97;;;23.22;50.24
43488;BME280;29078;41.932;25.554;2023-06-05T08:22:55;100046.66;;;23.28;50.11
43488;BME280;29078;41.932;25.554;2023-06-05T08:25:24;100048.69;;;23.38;50.17
43488;BME280;29078;41.932;25.554;2023-06-05T08:27:49;100046.63;;;23.45;49.60
43488;BME280;29078;41.932;25.554;2023-06-05T08:30:15;100042.84;;;23.63;49.70
43488;BME280;29078;41.932;25.554;2023-06-05T08:32:41;100038.38;;;23.73;48.40
43488;BME280;29078;41.932;25.554;2023-06-05T08:35:06;100037.69;;;23.83;48.01
43488;BME280;29078;41.932;25.554;2023-06-05T08:37:31;100043.75;;;23.95;47.24
43488;BME280;29078;41.932;25.554;2023-06-05T08:39:56;100037.47;;;24.12;47.35
43488;BME280;29078;41.932;25.554;2023-06-05T08:42:25;100032.38;;;24.15;46.54
43488;BME280;29078;41.932;25.554;2023-06-05T08:44:53;100034.34;;;24.25;47.30
43488;BME280;29078;41.932;25.554;2023-06-05T08:47:19;100037.69;;;24.32;46.91
43488;BME280;29078;41.932;25.554;2023-06-05T08:49:47;100038.88;;;24.46;47.10
43488;BME280;29078;41.932;25.554;2023-06-05T08:52:12;100028.00;;;24.36;46.23
43488;BME280;29078;41.932;25.554;2023-06-05T08:54:39;100031.50;;;24.36;47.41
43488;BME280;29078;41.932;25.554;2023-06-05T08:57:06;100027.53;;;24.44;47.33
43488;BME280;29078;41.932;25.554;2023-06-05T08:59:31;100042.03;;;24.65;46.84
43488;BME280;29078;41.932;25.554;2023-06-05T09:01:57;100039.16;;;24.77;45.26
43488;BME280;29078;41.932;25.554;2023-06-05T09:04:22;100034.94;;;24.91;45.60
43488;BME280;29078;41.932;25.554;2023-06-05T09:06:49;100035.63;;;25.13;45.48
43488;BME280;29078;41.932;25.554;2023-06-05T09:09:17;100028.75;;;25.32;45.03
43488;BME280;29078;41.932;25.554;2023-06-05T09:11:43;100027.44;;;25.45;45.12
43488;BME280;29078;41.932;25.554;2023-06-05T09:14:08;100033.97;;;25.54;44.29
43488;BME280;29078;41.932;25.554;2023-06-05T09:16:40;100035.41;;;25.72;44.14
43488;BME280;29078;41.932;25.554;2023-06-05T09:19:07;100034.91;;;25.85;43.46
43488;BME280;29078;41.932;25.554;2023-06-05T09:21:33;100030.31;;;25.86;43.35
43488;BME280;29078;41.932;25.554;2023-06-05T09:24:14;100031.47;;;26.05;43.66
43488;BME280;29078;41.932;25.554;2023-06-05T09:31:48;100037.78;;;26.77;42.52
43488;BME280;29078;41.932;25.554;2023-06-05T09:36:55;100030.16;;;27.14;40.81
43488;BME280;29078;41.932;25.554;2023-06-05T09:39:22;100026.28;;;27.36;40.29
43488;BME280;29078;41.932;25.554;2023-06-05T09:41:49;100020.56;;;27.42;39.68
43488;BME280;29078;41.932;25.554;2023-06-05T09:44:16;100023.53;;;27.46;39.93
43488;BME280;29078;41.932;25.554;2023-06-05T09:46:51;100027.28;;;27.65;38.12
43488;BME280;29078;41.932;25.554;2023-06-05T09:49:19;100016.94;;;27.72;40.49
43488;BME280;29078;41.932;25.554;2023-06-05T09:51:45;100003.84;;;27.84;38.37
43488;BME280;29078;41.932;25.554;2023-06-05T09:54:11;100008.66;;;27.98;39.93
43488;BME280;29078;41.932;25.554;2023-06-05T09:56:37;100004.75;;;28.14;37.49
43488;BME280;29078;41.932;25.554;2023-06-05T09:59:05;100004.16;;;28.27;38.17
43488;BME280;29078;41.932;25.554;2023-06-05T10:01:31;99996.41;;;28.44;39.91
43488;BME280;29078;41.932;25.554;2023-06-05T10:06:24;99993.63;;;28.78;37.40
43488;BME280;29078;41.932;25.554;2023-06-05T10:08:51;99993.75;;;28.97;37.71
43488;BME280;29078;41.932;25.554;2023-06-05T10:11:18;99998.16;;;29.17;36.38
43488;BME280;29078;41.932;25.554;2023-06-05T10:13:44;99991.44;;;29.33;35.99
43488;BME280;29078;41.932;25.554;2023-06-05T10:16:10;99997.75;;;29.53;37.13
43488;BME280;29078;41.932;25.554;2023-06-05T10:18:35;99983.06;;;29.72;36.57
43488;BME280;29078;41.932;25.554;2023-06-05T10:21:01;99983.00;;;29.78;36.33
43488;BME280;29078;41.932;25.554;2023-06-05T10:23:27;99980.59;;;29.76;37.89
43488;BME280;29078;41.932;25.554;2023-06-05T10:25:53;99978.66;;;29.77;37.67
43488;BME280;29078;41.932;25.554;2023-06-05T10:28:36;99974.25;;;29.81;35.28
43488;BME280;29078;41.932;25.554;2023-06-05T10:31:18;99969.91;;;29.98;35.70
43488;BME280;29078;41.932;25.554;2023-06-05T10:39:14;99987.19;;;30.26;34.25
43488;BME280;29078;41.932;25.554;2023-06-05T10:41:39;99973.69;;;30.35;33.81
43488;BME280;29078;41.932;25.554;2023-06-05T10:44:05;99970.13;;;30.53;32.05
43488;BME280;29078;41.932;25.554;2023-06-05T10:46:34;99971.00;;;30.81;31.98
43488;BME280;29078;41.932;25.554;2023-06-05T10:49:18;99966.16;;;30.92;32.40
43488;BME280;29078;41.932;25.554;2023-06-05T10:51:50;99966.38;;;30.95;30.23
43488;BME280;29078;41.932;25.554;2023-06-05T10:59:28;99966.38;;;30.82;32.73
43488;BME280;29078;41.932;25.554;2023-06-05T11:10:04;99962.22;;;31.12;30.13
43488;BME280;29078;41.932;25.554;2023-06-05T11:15:08;99960.75;;;31.33;30.69
43488;BME280;29078;41.932;25.554;2023-06-05T11:20:05;99948.72;;;31.20;29.15
43488;BME280;29078;41.932;25.554;2023-06-05T11:23:06;99952.47;;;31.24;27.13
43488;BME280;29078;41.932;25.554;2023-06-05T11:30:21;99969.72;;;31.47;27.81
43488;BME280;29078;41.932;25.554;2023-06-05T11:32:46;99959.41;;;31.44;27.28
43488;BME280;29078;41.932;25.554;2023-06-05T11:35:12;99937.34;;;31.54;23.50
43488;BME280;29078;41.932;25.554;2023-06-05T11:37:38;99941.13;;;31.81;24.23
43488;BME280;29078;41.932;25.554;2023-06-05T11:40:04;99946.84;;;31.93;26.73
43488;BME280;29078;41.932;25.554;2023-06-05T11:42:36;99952.31;;;31.93;26.05
43488;BME280;29078;41.932;25.554;2023-06-05T11:45:04;99949.88;;;32.05;24.98
43488;BME280;29078;41.932;25.554;2023-06-05T11:47:35;99946.63;;;32.03;26.50
43488;BME280;29078;41.932;25.554;2023-06-05T11:50:13;99948.16;;;31.96;26.75
43488;BME280;29078;41.932;25.554;2023-06-05T11:52:40;99935.84;;;31.98;25.33
43488;BME280;29078;41.932;25.554;2023-06-05T11:57:43;99941.09;;;32.17;22.89
43488;BME280;29078;41.932;25.554;2023-06-05T12:00:09;99937.44;;;32.44;23.88
43488;BME280;29078;41.932;25.554;2023-06-05T12:02:36;99938.91;;;32.50;25.69
43488;BME280;29078;41.932;25.554;2023-06-05T12:05:01;99938.91;;;32.50;23.93
43488;BME280;29078;41.932;25.554;2023-06-05T12:07:30;99941.22;;;32.65;24.59
43488;BME280;29078;41.932;25.554;2023-06-05T12:09:56;99939.31;;;32.66;21.46
43488;BME280;29078;41.932;25.554;2023-06-05T12:12:23;99929.44;;;32.56;24.58
43488;BME280;29078;41.932;25.554;2023-06-05T12:14:48;99929.31;;;32.61;22.67
43488;BME280;29078;41.932;25.554;2023-06-05T12:17:14;99926.69;;;32.47;25.18
43488;BME280;29078;41.932;25.554;2023-06-05T12:19:39;99937.81;;;32.29;24.28
43488;BME280;29078;41.932;25.554;2023-06-05T12:22:06;99931.75;;;32.32;24.70
43488;BME280;29078;41.932;25.554;2023-06-05T12:24:31;99928.19;;;32.09;25.89
43488;BME280;29078;41.932;25.554;2023-06-05T12:27:01;99928.81;;;32.06;23.42
43488;BME280;29078;41.932;25.554;2023-06-05T12:29:29;99914.28;;;32.19;24.12
43488;BME280;29078;41.932;25.554;2023-06-05T12:31:58;99921.13;;;32.30;26.55
43488;BME280;29078;41.932;25.554;2023-06-05T12:34:46;99917.34;;;32.48;24.38
43488;BME280;29078;41.932;25.554;2023-06-05T12:37:11;99916.75;;;32.60;25.05
43488;BME280;29078;41.932;25.554;2023-06-05T12:39:46;99912.25;;;32.55;24.96
43488;BME280;29078;41.932;25.554;2023-06-05T12:42:11;99908.16;;;32.75;25.67
43488;BME280;29078;41.932;25.554;2023-06-05T12:44:37;99906.47;;;32.57;23.77
43488;BME280;29078;41.932;25.554;2023-06-05T12:47:02;99910.97;;;32.62;23.67
43488;BME280;29078;41.932;25.554;2023-06-05T12:49:27;99907.59;;;32.56;25.47
43488;BME280;29078;41.932;25.554;2023-06-05T12:51:52;99901.31;;;32.55;23.80
43488;BME280;29078;41.932;25.554;2023-06-05T12:54:18;99914.47;;;32.53;24.91
43488;BME280;29078;41.932;25.554;2023-06-05T12:56:44;99906.09;;;32.50;23.47
43488;BME280;29078;41.932;25.554;2023-06-05T12:59:10;99904.13;;;32.42;24.63
43488;BME280;29078;41.932;25.554;2023-06-05T13:01:35;99899.19;;;32.52;23.08
43488;BME280;29078;41.932;25.554;2023-06-05T13:04:02;99912.69;;;32.49;23.47
43488;BME280;29078;41.932;25.554;2023-06-05T13:06:27;99911.94;;;32.57;21.88
43488;BME280;29078;41.932;25.554;2023-06-05T13:08:53;99902.22;;;32.42;21.22
43488;BME280;29078;41.932;25.554;2023-06-05T13:11:18;99906.84;;;32.33;22.13
43488;BME280;29078;41.932;25.554;2023-06-05T13:13:44;99903.16;;;32.15;19.29
43488;BME280;29078;41.932;25.554;2023-06-05T13:16:09;99909.81;;;32.01;20.43
43488;BME280;29078;41.932;25.554;2023-06-05T13:18:35;99897.28;;;32.00;22.18
43488;BME280;29078;41.932;25.554;2023-06-05T13:21:01;99903.97;;;31.93;22.62
43488;BME280;29078;41.932;25.554;2023-06-05T13:23:26;99905.88;;;31.93;23.28
43488;BME280;29078;41.932;25.554;2023-06-05T13:25:52;99900.69;;;31.69;18.76